KFAR/FAR METAR and TAF weather

Enter ICAO airport designator
Station Type Date Time Source
KFAR METAR 2019/04/25 15:53 UTC NOAA

KFAR 251553Z 31012KT 10SM CLR 17/00 A2990 RMK AO2 SLP127 T01720000


Station Type Date Time Source
KFAR Decoded METAR 2019/04/25 15:53 UTC NOAA

HECTOR INTERNATIONAL AIRPORT , ND, United States (KFAR) 46-56N 096-49W 277M
Apr 25, 2019 - 11:53 AM EDT / 2019.04.25 1553 UTC
Wind: from the NW (310 degrees) at 14 MPH (12 KT):0
Visibility: 10 mile(s):0
Sky conditions: clear
Temperature: 63.0 F (17.2 C)
Dew Point: 32.0 F (0.0 C)
Relative Humidity: 31%
Pressure (altimeter): 29.9 in. Hg (1012 hPa)
ob: KFAR 251553Z 31012KT 10SM CLR 17/00 A2990 RMK AO2 SLP127 T01720000
cycle: 16

Station Type Date Time Source
KFAR TAF 2019/04/25 12:36 UTC NOAA

TAF KFAR 251134Z 2512/2612 31007KT P6SM FEW250
FM251800 30015G23KT P6SM FEW250
FM252000 30020G30KT P6SM SCT090
FM260200 31015KT P6SM FEW150
FM260700 30006KT P6SM FEW250

Example: see airport list